createdAt,value
2019-01-31T00:01:25.908Z,24.60
2019-01-31T00:04:17.401Z,22.07
2019-01-31T00:07:24.666Z,21.45
2019-01-31T00:10:23.489Z,23.73
2019-01-31T00:13:22.790Z,23.00
2019-01-31T00:16:25.641Z,20.68
2019-01-31T00:19:35.839Z,22.42
2019-01-31T00:22:50.319Z,21.00
2019-01-31T00:25:59.614Z,26.68
2019-01-31T00:29:16.510Z,24.02
2019-01-31T00:32:15.665Z,19.10
2019-01-31T00:35:10.111Z,20.12
2019-01-31T00:38:05.262Z,20.32
2019-01-31T00:41:05.382Z,21.48
2019-01-31T00:44:11.026Z,16.32
2019-01-31T00:47:09.706Z,17.00
2019-01-31T00:49:50.243Z,19.62
2019-01-31T00:53:11.844Z,17.12
2019-01-31T00:56:11.821Z,16.52
2019-01-31T00:59:17.246Z,17.45
2019-01-31T01:02:33.060Z,20.25
2019-01-31T01:05:30.107Z,14.55
2019-01-31T01:08:11.872Z,14.20
2019-01-31T01:11:24.158Z,13.78
2019-01-31T01:14:43.640Z,10.55
2019-01-31T01:17:32.407Z,13.70
2019-01-31T01:20:28.940Z,11.12
2019-01-31T01:23:40.342Z,12.30
2019-01-31T01:26:43.701Z,9.90
2019-01-31T01:29:33.747Z,10.13
2019-01-31T01:32:32.675Z,9.65
2019-01-31T01:35:50.744Z,8.75
2019-01-31T01:39:03.786Z,9.63
2019-01-31T01:42:31.508Z,5.20
2019-01-31T01:45:37.170Z,3.60
2019-01-31T01:48:29.005Z,3.05
2019-01-31T01:51:36.129Z,2.27
2019-01-31T01:55:01.421Z,3.50
2019-01-31T01:58:08.415Z,1.62
2019-01-31T02:01:10.108Z,2.17
2019-01-31T02:04:14.782Z,1.60
2019-01-31T02:07:31.346Z,2.20
2019-01-31T02:10:32.867Z,2.58
2019-01-31T02:13:34.060Z,1.60
2019-01-31T02:16:47.666Z,1.47
2019-01-31T02:20:00.334Z,1.65
2019-01-31T02:22:53.558Z,1.30
2019-01-31T02:25:50.647Z,1.37
2019-01-31T02:28:28.087Z,1.22
2019-01-31T02:31:40.332Z,1.15
2019-01-31T02:34:36.158Z,1.10
2019-01-31T02:37:51.824Z,2.17
2019-01-31T02:41:14.488Z,2.25
2019-01-31T02:44:06.168Z,1.47
2019-01-31T02:47:24.259Z,1.37
2019-01-31T02:50:09.129Z,1.12
2019-01-31T02:53:11.487Z,2.70
2019-01-31T02:56:00.646Z,1.32
2019-01-31T02:59:05.123Z,1.30
2019-01-31T03:02:16.544Z,1.40
2019-01-31T03:05:27.851Z,1.50
2019-01-31T03:08:11.183Z,1.45
2019-01-31T03:10:53.725Z,1.50
2019-01-31T03:14:16.691Z,1.20
2019-01-31T03:17:18.457Z,1.25
2019-01-31T03:20:38.935Z,1.00
2019-01-31T03:23:49.334Z,1.07
2019-01-31T03:27:07.526Z,1.25
2019-01-31T03:30:37.343Z,0.93
2019-01-31T03:33:30.579Z,0.70
2019-01-31T03:36:29.550Z,0.78
2019-01-31T03:39:31.442Z,1.67
2019-01-31T03:42:38.723Z,1.02
2019-01-31T03:45:49.476Z,1.40
2019-01-31T03:49:06.895Z,1.02
2019-01-31T03:52:27.409Z,0.90
2019-01-31T03:55:22.017Z,0.90
2019-01-31T03:58:42.813Z,0.80
2019-01-31T04:02:03.410Z,2.33
2019-01-31T04:05:14.662Z,0.50
2019-01-31T04:07:45.329Z,1.10
2019-01-31T04:10:19.001Z,1.22
2019-01-31T04:12:48.017Z,1.60
2019-01-31T04:15:18.707Z,2.42
2019-01-31T04:17:57.063Z,2.62
2019-01-31T04:20:27.958Z,2.47
2019-01-31T04:22:58.283Z,2.87
2019-01-31T04:25:28.646Z,2.40
2019-01-31T04:27:59.045Z,2.47
2019-01-31T04:30:30.979Z,2.45
2019-01-31T04:33:01.415Z,2.12
2019-01-31T04:35:31.855Z,3.27
2019-01-31T04:38:02.257Z,2.55
2019-01-31T04:40:32.787Z,1.55
2019-01-31T04:43:03.261Z,1.80
2019-01-31T04:45:33.647Z,2.15
2019-01-31T04:48:04.235Z,1.75
2019-01-31T04:50:34.523Z,2.70
2019-01-31T04:53:04.972Z,3.02
2019-01-31T04:55:35.890Z,3.58
2019-01-31T04:58:06.262Z,4.30
2019-01-31T05:00:36.717Z,4.10
2019-01-31T05:03:07.210Z,5.30
2019-01-31T05:05:38.517Z,4.83
2019-01-31T05:08:08.942Z,4.50
2019-01-31T05:10:43.272Z,5.28
2019-01-31T05:13:11.506Z,14.23
2019-01-31T05:15:42.024Z,15.03
2019-01-31T05:18:12.391Z,18.15
2019-01-31T05:20:42.750Z,14.15
2019-01-31T05:23:13.100Z,7.72
2019-01-31T05:25:43.535Z,6.67
2019-01-31T05:28:15.398Z,7.87
2019-01-31T05:30:45.750Z,7.42
2019-01-31T05:33:17.310Z,7.78
2019-01-31T05:35:48.559Z,7.70
2019-01-31T05:38:18.935Z,8.05
2019-01-31T05:40:55.603Z,8.53
2019-01-31T05:43:21.428Z,9.43
2019-01-31T05:45:51.688Z,9.40
2019-01-31T05:48:22.046Z,11.15
2019-01-31T05:50:52.378Z,10.85
2019-01-31T05:53:22.731Z,10.23
2019-01-31T05:55:53.659Z,10.60
2019-01-31T05:58:23.987Z,10.78
2019-01-31T06:00:56.842Z,12.35
2019-01-31T06:03:28.098Z,9.63
2019-01-31T06:05:58.959Z,10.93
2019-01-31T06:08:29.735Z,12.07
2019-01-31T06:11:07.103Z,11.25
2019-01-31T06:13:32.191Z,10.78
2019-01-31T06:16:02.675Z,13.03
2019-01-31T06:18:33.160Z,12.68
2019-01-31T06:21:04.010Z,14.45
2019-01-31T06:23:34.443Z,13.62
2019-01-31T06:26:05.579Z,13.95
2019-01-31T06:28:35.936Z,14.75
2019-01-31T06:31:06.354Z,14.65
2019-01-31T06:33:36.708Z,17.07
2019-01-31T06:36:07.514Z,15.03
2019-01-31T06:38:37.979Z,20.43
2019-01-31T06:41:18.199Z,19.42
2019-01-31T06:43:42.498Z,17.62
2019-01-31T06:46:12.827Z,21.57
2019-01-31T06:48:43.325Z,19.80
2019-01-31T06:51:14.045Z,22.45
2019-01-31T06:53:44.370Z,22.35
2019-01-31T06:56:14.726Z,22.52
2019-01-31T06:58:45.051Z,23.90
2019-01-31T07:01:15.418Z,24.12
2019-01-31T07:03:45.838Z,21.73
2019-01-31T07:06:16.451Z,22.42
2019-01-31T07:08:46.786Z,22.27
2019-01-31T07:11:17.351Z,21.17
2019-01-31T07:13:47.721Z,20.45
2019-01-31T07:16:18.100Z,20.92
2019-01-31T07:18:48.591Z,20.30
2019-01-31T07:21:19.310Z,19.15
2019-01-31T07:23:49.683Z,16.90
2019-01-31T07:26:20.071Z,18.57
2019-01-31T07:28:50.507Z,20.45
2019-01-31T07:31:20.991Z,18.48
2019-01-31T07:33:53.371Z,17.15
2019-01-31T07:36:23.970Z,19.30
2019-01-31T07:38:58.647Z,19.20
2019-01-31T07:41:28.984Z,17.35
2019-01-31T07:43:59.411Z,18.07
2019-01-31T07:46:30.207Z,17.37
2019-01-31T07:49:00.526Z,15.20
2019-01-31T07:51:31.085Z,17.07
2019-01-31T07:54:01.604Z,17.35
2019-01-31T07:56:32.474Z,15.55
2019-01-31T07:59:02.976Z,15.60
2019-01-31T08:01:33.414Z,16.62
2019-01-31T08:04:03.934Z,20.30
2019-01-31T08:06:35.482Z,15.68
2019-01-31T08:09:08.631Z,14.35
2019-01-31T08:11:39.024Z,14.20
2019-01-31T08:14:09.459Z,14.95
2019-01-31T08:16:40.458Z,12.65
2019-01-31T08:19:10.727Z,13.90
2019-01-31T08:21:41.319Z,16.17
2019-01-31T08:24:12.038Z,12.75
2019-01-31T08:26:42.399Z,11.73
2019-01-31T08:29:12.726Z,11.38
2019-01-31T08:31:43.230Z,10.93
2019-01-31T08:34:14.610Z,10.13
2019-01-31T08:36:44.960Z,11.22
2019-01-31T08:39:15.292Z,10.82
2019-01-31T08:41:45.941Z,10.00
2019-01-31T08:44:16.567Z,9.83
2019-01-31T08:46:47.154Z,8.78
2019-01-31T08:49:17.546Z,8.55
2019-01-31T08:51:47.874Z,8.83
2019-01-31T08:54:18.119Z,11.12
2019-01-31T08:56:49.178Z,9.60
2019-01-31T08:59:20.068Z,9.65
2019-01-31T09:01:50.429Z,8.58
2019-01-31T09:04:20.769Z,9.08
2019-01-31T09:06:51.959Z,7.75
2019-01-31T09:09:22.503Z,10.15
2019-01-31T09:11:52.758Z,8.43
2019-01-31T09:14:23.084Z,7.95
2019-01-31T09:16:53.425Z,11.30
2019-01-31T09:19:23.814Z,8.83
2019-01-31T09:22:18.356Z,9.30
2019-01-31T09:25:06.218Z,8.38
2019-01-31T09:28:01.416Z,10.93
2019-01-31T09:31:08.318Z,10.10
2019-01-31T09:34:32.177Z,8.73
2019-01-31T09:37:27.407Z,11.00
2019-01-31T09:40:20.311Z,9.80
2019-01-31T09:43:26.296Z,8.55
2019-01-31T09:46:46.707Z,8.23
2019-01-31T09:49:50.494Z,7.97
2019-01-31T09:52:54.473Z,9.60
2019-01-31T09:56:09.164Z,8.68
2019-01-31T09:59:09.515Z,7.70
2019-01-31T10:02:30.242Z,8.25
2019-01-31T10:05:23.577Z,7.28
2019-01-31T10:08:31.880Z,10.03
2019-01-31T10:11:46.950Z,7.67
2019-01-31T10:14:39.295Z,6.62
2019-01-31T10:17:57.339Z,6.83
2019-01-31T10:20:41.974Z,7.20
2019-01-31T10:23:42.842Z,7.10
2019-01-31T10:26:58.663Z,7.70
2019-01-31T10:30:05.278Z,7.45
2019-01-31T10:33:00.711Z,7.58
2019-01-31T10:36:07.322Z,7.80
2019-01-31T10:38:48.673Z,8.03
2019-01-31T10:41:50.884Z,8.08
2019-01-31T10:44:47.819Z,7.60
2019-01-31T10:48:09.650Z,7.58
2019-01-31T10:51:03.670Z,7.97
2019-01-31T10:54:05.632Z,8.25
2019-01-31T10:57:24.158Z,8.35
2019-01-31T11:00:37.107Z,8.28
2019-01-31T11:03:45.130Z,8.45
2019-01-31T11:06:59.085Z,9.28
2019-01-31T11:09:41.954Z,9.10
2019-01-31T11:13:08.379Z,9.25
2019-01-31T11:16:18.074Z,9.75
2019-01-31T11:19:14.973Z,13.40
2019-01-31T11:22:25.476Z,16.90
2019-01-31T11:25:42.771Z,19.07
2019-01-31T11:28:45.893Z,20.62
2019-01-31T11:31:55.932Z,23.12
2019-01-31T11:34:59.314Z,26.20
2019-01-31T11:37:42.859Z,30.82
2019-01-31T11:41:00.079Z,30.62
2019-01-31T11:44:13.002Z,32.25
2019-01-31T11:47:05.742Z,31.60
2019-01-31T11:50:06.122Z,34.38
2019-01-31T11:53:02.383Z,34.27
2019-01-31T11:55:53.830Z,34.88
2019-01-31T11:58:57.332Z,38.30
2019-01-31T12:01:28.109Z,44.20
2019-01-31T12:04:08.283Z,42.15
2019-01-31T12:06:38.879Z,43.33
2019-01-31T12:09:12.555Z,43.10
2019-01-31T12:11:42.927Z,39.73
2019-01-31T12:14:14.053Z,44.65
2019-01-31T12:16:45.471Z,42.53
2019-01-31T12:19:15.975Z,47.35
2019-01-31T12:21:46.465Z,41.13
2019-01-31T12:24:17.612Z,44.65
2019-01-31T12:26:47.991Z,44.83
2019-01-31T12:29:18.394Z,41.80
2019-01-31T12:31:48.854Z,39.45
2019-01-31T12:34:19.227Z,44.00
2019-01-31T12:36:49.935Z,38.48
2019-01-31T12:39:22.514Z,41.90
2019-01-31T12:41:52.915Z,42.70
2019-01-31T12:44:23.250Z,47.60
2019-01-31T12:46:53.778Z,39.33
2019-01-31T12:49:24.264Z,41.63
2019-01-31T12:51:55.030Z,41.05
2019-01-31T12:54:25.484Z,39.40
2019-01-31T12:56:56.052Z,42.58
2019-01-31T12:59:26.578Z,45.90
2019-01-31T13:01:57.138Z,50.05
2019-01-31T13:04:27.505Z,42.67
2019-01-31T13:06:57.897Z,47.17
2019-01-31T13:09:28.599Z,48.70
2019-01-31T13:11:59.057Z,49.65
2019-01-31T13:14:30.154Z,47.33
2019-01-31T13:17:00.998Z,53.58
2019-01-31T13:19:31.344Z,55.23
2019-01-31T13:22:01.754Z,57.15
2019-01-31T13:24:32.191Z,53.10
2019-01-31T13:27:03.962Z,51.75
2019-01-31T13:29:34.326Z,46.60
2019-01-31T13:32:05.167Z,46.70
2019-01-31T13:34:35.534Z,46.63
2019-01-31T13:37:06.015Z,49.30
2019-01-31T13:39:36.687Z,42.60
2019-01-31T13:42:07.299Z,42.73
2019-01-31T13:44:40.092Z,43.65
2019-01-31T13:47:10.512Z,47.58
2019-01-31T13:49:41.759Z,47.05
2019-01-31T13:52:12.683Z,51.88
2019-01-31T13:54:43.350Z,49.60
2019-01-31T13:57:13.822Z,51.35
2019-01-31T13:59:44.180Z,51.10
2019-01-31T14:02:14.607Z,52.45
2019-01-31T14:04:45.001Z,52.43
2019-01-31T14:07:15.416Z,57.43
2019-01-31T14:09:45.881Z,55.98
2019-01-31T14:12:16.448Z,49.75
2019-01-31T14:14:48.427Z,55.78
2019-01-31T14:17:18.741Z,45.78
2019-01-31T14:19:49.082Z,50.60
2019-01-31T14:22:19.978Z,49.23
2019-01-31T14:24:50.468Z,50.52
2019-01-31T14:27:20.844Z,48.55
2019-01-31T14:29:52.179Z,49.35
2019-01-31T14:32:24.705Z,51.42
2019-01-31T14:34:55.163Z,53.75
2019-01-31T14:37:26.358Z,51.42
2019-01-31T14:39:56.644Z,46.92
2019-01-31T14:42:26.983Z,47.17
2019-01-31T14:44:57.355Z,53.70
2019-01-31T14:47:27.786Z,51.90
2019-01-31T14:49:58.788Z,43.05
2019-01-31T14:52:30.460Z,52.45
2019-01-31T14:55:01.237Z,53.05
2019-01-31T14:57:34.012Z,52.78
2019-01-31T15:00:16.986Z,49.35
2019-01-31T15:02:47.958Z,49.40
2019-01-31T15:05:19.283Z,49.80
2019-01-31T15:07:49.826Z,50.25
2019-01-31T15:10:22.602Z,45.30
2019-01-31T15:12:53.262Z,53.05
2019-01-31T15:15:24.696Z,47.33
2019-01-31T15:17:55.912Z,51.65
2019-01-31T15:20:37.548Z,51.83
2019-01-31T15:23:00.831Z,49.03
2019-01-31T15:25:31.323Z,53.52
2019-01-31T15:28:01.720Z,51.50
2019-01-31T15:30:34.355Z,53.70
2019-01-31T15:33:07.842Z,62.03
2019-01-31T15:35:38.839Z,59.10
2019-01-31T15:38:11.298Z,57.83
2019-01-31T15:40:44.824Z,61.30
2019-01-31T15:43:15.383Z,55.03
2019-01-31T15:45:45.847Z,55.50
2019-01-31T15:48:16.367Z,53.87
2019-01-31T15:50:46.919Z,54.20
2019-01-31T15:53:17.215Z,51.80
2019-01-31T15:55:47.723Z,52.08
2019-01-31T15:58:18.095Z,53.08
2019-01-31T16:00:53.912Z,56.60
2019-01-31T16:03:27.791Z,51.88
2019-01-31T16:05:58.315Z,51.40
2019-01-31T16:08:28.827Z,43.68
2019-01-31T16:10:59.140Z,43.78
2019-01-31T16:13:31.441Z,46.00
2019-01-31T16:16:02.812Z,43.35
2019-01-31T16:18:33.298Z,38.10
2019-01-31T16:21:04.241Z,30.45
2019-01-31T16:23:34.663Z,32.35
2019-01-31T16:26:05.164Z,32.05
2019-01-31T16:28:35.623Z,32.85
2019-01-31T16:31:06.215Z,32.65
2019-01-31T16:33:36.683Z,32.28
2019-01-31T16:36:07.178Z,32.85
2019-01-31T16:38:38.630Z,28.98
2019-01-31T16:41:09.882Z,30.80
2019-01-31T16:43:40.336Z,30.45
2019-01-31T16:46:10.812Z,28.25
2019-01-31T16:48:41.534Z,30.05
2019-01-31T16:51:11.907Z,31.68
2019-01-31T16:53:43.076Z,28.73
2019-01-31T16:56:14.330Z,28.02
2019-01-31T16:58:44.950Z,28.20
2019-01-31T17:01:16.140Z,30.15
2019-01-31T17:03:46.834Z,27.50
2019-01-31T17:06:17.231Z,30.02
2019-01-31T17:08:47.552Z,36.00
2019-01-31T17:11:17.910Z,31.12
2019-01-31T17:13:49.959Z,30.05
2019-01-31T17:16:21.102Z,32.30
2019-01-31T17:18:54.666Z,31.85
2019-01-31T17:21:26.412Z,31.00
2019-01-31T17:23:57.155Z,31.10
2019-01-31T17:26:27.531Z,34.48
2019-01-31T17:28:57.970Z,32.08
2019-01-31T17:31:28.310Z,30.37
2019-01-31T17:33:58.658Z,31.52
2019-01-31T17:36:29.342Z,30.43
2019-01-31T17:38:59.782Z,32.20
2019-01-31T17:41:30.203Z,30.70
2019-01-31T17:44:00.548Z,33.28
2019-01-31T17:46:31.682Z,31.57
2019-01-31T17:49:02.058Z,34.63
2019-01-31T17:51:32.639Z,32.58
2019-01-31T17:54:03.050Z,40.03
2019-01-31T17:56:33.498Z,37.75
2019-01-31T17:59:03.938Z,41.13
2019-01-31T18:01:34.337Z,43.23
2019-01-31T18:04:04.893Z,38.90
2019-01-31T18:06:35.546Z,35.95
2019-01-31T18:09:09.658Z,33.53
2019-01-31T18:11:40.095Z,37.50
2019-01-31T18:14:10.421Z,44.10
2019-01-31T18:16:40.742Z,37.67
2019-01-31T18:19:11.086Z,41.65
2019-01-31T18:21:41.506Z,40.33
2019-01-31T18:24:12.951Z,46.08
2019-01-31T18:26:43.226Z,41.00
2019-01-31T18:29:13.630Z,47.13
2019-01-31T18:31:45.750Z,37.73
2019-01-31T18:34:17.364Z,41.92
2019-01-31T18:36:47.811Z,40.65
2019-01-31T18:39:18.109Z,40.10
2019-01-31T18:41:48.432Z,44.42
2019-01-31T18:44:18.818Z,40.75
2019-01-31T18:46:49.150Z,42.03
2019-01-31T18:49:20.781Z,40.45
2019-01-31T18:51:51.150Z,39.10
2019-01-31T18:54:21.890Z,37.63
2019-01-31T18:56:55.038Z,39.92
2019-01-31T18:59:25.405Z,39.15
2019-01-31T19:01:55.886Z,36.75
2019-01-31T19:04:26.229Z,35.33
2019-01-31T19:06:57.476Z,33.70
2019-01-31T19:09:27.902Z,35.17
2019-01-31T19:11:58.253Z,35.95
2019-01-31T19:14:28.782Z,39.67
2019-01-31T19:17:03.627Z,35.92
2019-01-31T19:19:39.361Z,38.20
2019-01-31T19:22:10.045Z,40.38
2019-01-31T19:24:41.448Z,43.05
2019-01-31T19:27:11.980Z,39.05
2019-01-31T19:29:42.823Z,41.42
2019-01-31T19:32:15.219Z,38.92
2019-01-31T19:34:45.611Z,40.58
2019-01-31T19:37:16.035Z,35.08
2019-01-31T19:39:46.451Z,42.62
2019-01-31T19:42:16.856Z,41.95
2019-01-31T19:44:47.423Z,37.58
2019-01-31T19:47:18.783Z,32.88
2019-01-31T19:49:49.782Z,30.48
2019-01-31T19:52:20.179Z,31.48
2019-01-31T19:54:50.758Z,33.00
2019-01-31T19:57:22.295Z,31.60
2019-01-31T19:59:53.323Z,38.40
2019-01-31T20:02:35.664Z,41.02
2019-01-31T20:05:06.260Z,39.03
2019-01-31T20:07:43.158Z,37.45
2019-01-31T20:10:16.629Z,39.98
2019-01-31T20:12:49.195Z,37.28
2019-01-31T20:15:20.526Z,37.88
2019-01-31T20:17:54.538Z,38.50
2019-01-31T20:20:30.518Z,38.75
2019-01-31T20:23:03.785Z,39.30
2019-01-31T20:25:40.499Z,34.13
2019-01-31T20:28:14.523Z,36.33
2019-01-31T20:30:57.135Z,25.05
2019-01-31T20:33:31.059Z,33.98
2019-01-31T20:36:04.594Z,38.73
2019-01-31T20:38:35.009Z,35.20
2019-01-31T20:41:06.151Z,36.48
2019-01-31T20:43:36.831Z,44.63
2019-01-31T20:46:15.503Z,34.15
2019-01-31T20:48:48.829Z,40.20
2019-01-31T20:51:25.231Z,42.70
2019-01-31T20:54:03.139Z,37.25
2019-01-31T20:56:33.931Z,41.13
2019-01-31T20:59:04.811Z,44.40
2019-01-31T21:01:35.427Z,46.35
2019-01-31T21:04:06.007Z,40.75
2019-01-31T21:06:41.476Z,40.03
2019-01-31T21:09:08.751Z,39.10
2019-01-31T21:11:39.110Z,38.95
2019-01-31T21:14:13.107Z,42.23
2019-01-31T21:16:51.429Z,38.48
2019-01-31T21:19:15.566Z,44.30
2019-01-31T21:21:45.904Z,43.08
2019-01-31T21:24:28.638Z,45.30
2019-01-31T21:27:14.336Z,47.03
2019-01-31T21:29:48.166Z,50.50
2019-01-31T21:32:27.793Z,49.90
2019-01-31T21:35:06.166Z,53.25
2019-01-31T21:37:38.767Z,50.35
2019-01-31T21:40:10.634Z,54.73
2019-01-31T21:42:41.241Z,52.03
2019-01-31T21:45:14.067Z,52.40
2019-01-31T21:47:49.234Z,48.60
2019-01-31T21:50:27.539Z,46.55
2019-01-31T21:52:58.113Z,45.90
2019-01-31T21:55:28.580Z,50.10
2019-01-31T21:57:58.978Z,50.95
2019-01-31T22:00:33.611Z,53.85
2019-01-31T22:03:05.161Z,51.68
2019-01-31T22:05:37.174Z,50.95
2019-01-31T22:08:09.631Z,49.50
2019-01-31T22:10:43.266Z,51.80
2019-01-31T22:13:13.882Z,47.33
2019-01-31T22:16:00.215Z,50.30
2019-01-31T22:18:31.234Z,43.78
2019-01-31T22:21:20.078Z,53.85
2019-01-31T22:23:50.528Z,42.65
2019-01-31T22:26:27.050Z,42.70
2019-01-31T22:28:59.087Z,44.55
2019-01-31T22:31:30.287Z,45.88
2019-01-31T22:34:01.103Z,47.65
2019-01-31T22:36:32.183Z,43.58
2019-01-31T22:39:07.469Z,49.98
2019-01-31T22:41:37.887Z,50.05
2019-01-31T22:46:36.102Z,51.77
2019-01-31T22:49:06.463Z,54.33
2019-01-31T22:51:37.697Z,52.17
2019-01-31T22:54:08.251Z,52.40
2019-01-31T22:56:38.586Z,52.20
2019-01-31T22:59:15.119Z,52.67
2019-01-31T23:02:01.626Z,53.90
2019-01-31T23:04:32.385Z,56.15
2019-01-31T23:07:02.827Z,53.75
2019-01-31T23:09:33.314Z,50.25
2019-01-31T23:12:09.590Z,51.60
2019-01-31T23:14:39.963Z,48.35
2019-01-31T23:17:11.322Z,48.83
2019-01-31T23:19:42.939Z,48.92
2019-01-31T23:22:13.330Z,47.33
2019-01-31T23:24:45.627Z,45.28
2019-01-31T23:27:20.161Z,42.83
2019-01-31T23:29:50.623Z,44.70
2019-01-31T23:32:21.235Z,41.63
2019-01-31T23:34:51.609Z,40.85
2019-01-31T23:37:27.875Z,40.00
2019-01-31T23:40:01.925Z,38.83
2019-01-31T23:42:33.163Z,40.15
2019-01-31T23:45:03.838Z,40.92
2019-01-31T23:47:34.229Z,34.78
2019-01-31T23:50:05.982Z,37.40
2019-01-31T23:52:37.176Z,35.38
2019-01-31T23:55:08.579Z,37.88
2019-01-31T23:57:44.374Z,36.60
